sensor_id;sensor_type;location;lat;lon;timestamp;P1;durP1;ratioP1;P2;durP2;ratioP2
39822;SDS011;25499;53.958;10.970;2023-11-21T07:47:32;3.97;;;3.42;;
39822;SDS011;25499;53.958;10.970;2023-11-21T07:50:00;4.93;;;2.95;;
39822;SDS011;25499;53.958;10.970;2023-11-21T07:52:28;3.58;;;2.97;;
39822;SDS011;25499;53.958;10.970;2023-11-21T07:54:55;3.85;;;3.00;;
39822;SDS011;25499;53.958;10.970;2023-11-21T07:57:22;4.38;;;3.22;;
39822;SDS011;25499;53.958;10.970;2023-11-21T07:59:49;3.78;;;3.38;;
39822;SDS011;25499;53.958;10.970;2023-11-21T08:02:18;4.10;;;3.33;;
39822;SDS011;25499;53.958;10.970;2023-11-21T08:04:47;3.92;;;3.35;;
39822;SDS011;25499;53.958;10.970;2023-11-21T08:07:15;11.95;;;6.93;;
39822;SDS011;25499;53.958;10.970;2023-11-21T08:09:42;18.80;;;11.40;;
39822;SDS011;25499;53.958;10.970;2023-11-21T08:12:09;17.52;;;10.43;;
39822;SDS011;25499;53.958;10.970;2023-11-21T08:14:36;19.67;;;12.20;;
39822;SDS011;25499;53.958;10.970;2023-11-21T08:17:04;10.15;;;6.28;;
39822;SDS011;25499;53.958;10.970;2023-11-21T08:19:31;10.60;;;5.95;;
39822;SDS011;25499;53.958;10.970;2023-11-21T08:21:59;9.35;;;5.75;;
39822;SDS011;25499;53.958;10.970;2023-11-21T08:24:26;9.88;;;5.72;;
39822;SDS011;25499;53.958;10.970;2023-11-21T08:26:53;13.55;;;6.80;;
39822;SDS011;25499;53.958;10.970;2023-11-21T08:29:22;5.40;;;4.53;;
39822;SDS011;25499;53.958;10.970;2023-11-21T08:31:49;5.55;;;4.30;;
39822;SDS011;25499;53.958;10.970;2023-11-21T08:34:16;6.30;;;4.22;;
39822;SDS011;25499;53.958;10.970;2023-11-21T08:36:43;8.02;;;4.85;;
39822;SDS011;25499;53.958;10.970;2023-11-21T08:39:12;4.90;;;3.38;;
39822;SDS011;25499;53.958;10.970;2023-11-21T08:44:08;6.28;;;4.03;;
39822;SDS011;25499;53.958;10.970;2023-11-21T08:46:36;5.28;;;3.13;;
39822;SDS011;25499;53.958;10.970;2023-11-21T08:49:03;4.35;;;3.08;;
39822;SDS011;25499;53.958;10.970;2023-11-21T08:51:31;3.35;;;2.63;;
39822;SDS011;25499;53.958;10.970;2023-11-21T08:53:58;5.40;;;3.00;;
39822;SDS011;25499;53.958;10.970;2023-11-21T08:56:29;5.10;;;3.25;;
39822;SDS011;25499;53.958;10.970;2023-11-21T08:58:57;6.13;;;3.45;;
39822;SDS011;25499;53.958;10.970;2023-11-21T09:01:25;5.00;;;3.58;;
39822;SDS011;25499;53.958;10.970;2023-11-21T09:03:52;5.20;;;3.53;;
39822;SDS011;25499;53.958;10.970;2023-11-21T09:06:19;7.28;;;3.22;;
39822;SDS011;25499;53.958;10.970;2023-11-21T09:08:46;6.80;;;3.50;;
39822;SDS011;25499;53.958;10.970;2023-11-21T09:11:14;8.52;;;3.45;;
39822;SDS011;25499;53.958;10.970;2023-11-21T09:13:43;6.43;;;3.42;;
39822;SDS011;25499;53.958;10.970;2023-11-21T09:16:10;5.45;;;3.40;;
39822;SDS011;25499;53.958;10.970;2023-11-21T09:18:38;4.13;;;3.60;;
39822;SDS011;25499;53.958;10.970;2023-11-21T09:21:05;12.18;;;4.15;;
39822;SDS011;25499;53.958;10.970;2023-11-21T09:23:33;5.85;;;3.85;;
39822;SDS011;25499;53.958;10.970;2023-11-21T09:26:00;5.03;;;3.10;;
39822;SDS011;25499;53.958;10.970;2023-11-21T09:28:27;4.05;;;3.35;;
39822;SDS011;25499;53.958;10.970;2023-11-21T09:30:56;7.90;;;4.75;;
39822;SDS011;25499;53.958;10.970;2023-11-21T09:33:23;12.45;;;7.10;;
39822;SDS011;25499;53.958;10.970;2023-11-21T09:35:51;7.22;;;4.60;;
39822;SDS011;25499;53.958;10.970;2023-11-21T09:38:18;5.75;;;4.60;;
39822;SDS011;25499;53.958;10.970;2023-11-21T09:40:45;6.22;;;3.22;;
39822;SDS011;25499;53.958;10.970;2023-11-21T09:43:14;6.65;;;4.70;;
39822;SDS011;25499;53.958;10.970;2023-11-21T09:48:12;5.28;;;4.05;;
39822;SDS011;25499;53.958;10.970;2023-11-21T09:50:42;5.57;;;3.90;;
39822;SDS011;25499;53.958;10.970;2023-11-21T09:53:12;4.63;;;4.20;;
39822;SDS011;25499;53.958;10.970;2023-11-21T09:55:42;7.28;;;4.90;;
39822;SDS011;25499;53.958;10.970;2023-11-21T09:58:13;6.45;;;4.60;;
39822;SDS011;25499;53.958;10.970;2023-11-21T10:00:40;8.32;;;4.43;;
39822;SDS011;25499;53.958;10.970;2023-11-21T10:03:08;6.18;;;4.90;;
39822;SDS011;25499;53.958;10.970;2023-11-21T10:05:37;8.02;;;4.38;;
39822;SDS011;25499;53.958;10.970;2023-11-21T10:08:06;6.63;;;4.22;;
39822;SDS011;25499;53.958;10.970;2023-11-21T10:10:36;6.00;;;4.70;;
39822;SDS011;25499;53.958;10.970;2023-11-21T10:13:06;8.32;;;4.97;;
39822;SDS011;25499;53.958;10.970;2023-11-21T10:15:37;10.98;;;6.93;;
39822;SDS011;25499;53.958;10.970;2023-11-21T10:18:09;10.77;;;7.55;;
39822;SDS011;25499;53.958;10.970;2023-11-21T10:20:38;12.68;;;7.95;;
39822;SDS011;25499;53.958;10.970;2023-11-21T10:23:05;11.43;;;7.03;;
39822;SDS011;25499;53.958;10.970;2023-11-21T10:28:03;5.70;;;3.78;;
39822;SDS011;25499;53.958;10.970;2023-11-21T10:30:32;4.38;;;3.05;;
39822;SDS011;25499;53.958;10.970;2023-11-21T10:35:40;4.55;;;3.42;;
39822;SDS011;25499;53.958;10.970;2023-11-21T10:38:12;5.10;;;3.60;;
39822;SDS011;25499;53.958;10.970;2023-11-21T10:40:40;3.95;;;3.40;;
39822;SDS011;25499;53.958;10.970;2023-11-21T10:43:11;6.32;;;3.53;;
39822;SDS011;25499;53.958;10.970;2023-11-21T10:45:40;5.75;;;3.50;;
39822;SDS011;25499;53.958;10.970;2023-11-21T10:48:07;3.85;;;3.17;;
39822;SDS011;25499;53.958;10.970;2023-11-21T10:50:36;4.82;;;2.88;;
39822;SDS011;25499;53.958;10.970;2023-11-21T10:53:05;4.38;;;2.80;;
39822;SDS011;25499;53.958;10.970;2023-11-21T10:55:33;6.65;;;3.28;;
39822;SDS011;25499;53.958;10.970;2023-11-21T10:58:01;3.83;;;2.70;;
39822;SDS011;25499;53.958;10.970;2023-11-21T11:00:30;3.88;;;3.08;;
39822;SDS011;25499;53.958;10.970;2023-11-21T11:02:58;5.22;;;3.38;;
39822;SDS011;25499;53.958;10.970;2023-11-21T11:05:26;4.13;;;3.33;;
39822;SDS011;25499;53.958;10.970;2023-11-21T11:07:58;5.35;;;2.58;;
39822;SDS011;25499;53.958;10.970;2023-11-21T11:10:29;4.97;;;4.18;;
39822;SDS011;25499;53.958;10.970;2023-11-21T11:12:56;4.28;;;2.97;;
39822;SDS011;25499;53.958;10.970;2023-11-21T11:15:24;3.58;;;2.65;;
39822;SDS011;25499;53.958;10.970;2023-11-21T11:17:52;5.72;;;3.45;;
39822;SDS011;25499;53.958;10.970;2023-11-21T11:20:22;3.65;;;2.80;;
39822;SDS011;25499;53.958;10.970;2023-11-21T11:22:56;4.43;;;3.22;;
39822;SDS011;25499;53.958;10.970;2023-11-21T11:28:35;6.18;;;2.90;;
39822;SDS011;25499;53.958;10.970;2023-11-21T11:31:13;2.65;;;2.45;;
39822;SDS011;25499;53.958;10.970;2023-11-21T11:33:51;3.00;;;2.47;;
39822;SDS011;25499;53.958;10.970;2023-11-21T11:36:25;3.25;;;2.60;;
39822;SDS011;25499;53.958;10.970;2023-11-21T11:38:59;4.07;;;2.45;;
39822;SDS011;25499;53.958;10.970;2023-11-21T11:41:30;3.90;;;2.50;;
39822;SDS011;25499;53.958;10.970;2023-11-21T11:44:01;3.33;;;2.60;;
39822;SDS011;25499;53.958;10.970;2023-11-21T11:46:44;4.70;;;2.47;;
39822;SDS011;25499;53.958;10.970;2023-11-21T11:49:23;5.60;;;3.25;;
39822;SDS011;25499;53.958;10.970;2023-11-21T11:54:51;5.45;;;2.80;;
39822;SDS011;25499;53.958;10.970;2023-11-21T11:57:21;6.07;;;2.97;;
39822;SDS011;25499;53.958;10.970;2023-11-21T12:02:41;4.63;;;3.00;;
39822;SDS011;25499;53.958;10.970;2023-11-21T12:05:11;4.95;;;2.92;;
39822;SDS011;25499;53.958;10.970;2023-11-21T12:07:46;4.53;;;2.45;;
39822;SDS011;25499;53.958;10.970;2023-11-21T12:10:14;4.07;;;2.70;;
39822;SDS011;25499;53.958;10.970;2023-11-21T12:12:45;4.28;;;2.78;;
39822;SDS011;25499;53.958;10.970;2023-11-21T12:15:13;2.80;;;2.30;;
39822;SDS011;25499;53.958;10.970;2023-11-21T12:17:40;3.75;;;2.60;;
39822;SDS011;25499;53.958;10.970;2023-11-21T12:20:09;3.42;;;2.67;;
39822;SDS011;25499;53.958;10.970;2023-11-21T12:22:44;3.30;;;2.65;;
39822;SDS011;25499;53.958;10.970;2023-11-21T12:25:14;3.38;;;2.60;;
39822;SDS011;25499;53.958;10.970;2023-11-21T12:27:46;5.00;;;2.10;;
39822;SDS011;25499;53.958;10.970;2023-11-21T12:30:15;4.88;;;2.22;;
39822;SDS011;25499;53.958;10.970;2023-11-21T12:32:43;4.57;;;2.15;;
39822;SDS011;25499;53.958;10.970;2023-11-21T12:35:12;3.95;;;2.03;;
39822;SDS011;25499;53.958;10.970;2023-11-21T12:37:38;3.00;;;2.22;;
39822;SDS011;25499;53.958;10.970;2023-11-21T12:40:09;4.35;;;2.97;;
39822;SDS011;25499;53.958;10.970;2023-11-21T12:42:40;9.48;;;6.00;;
39822;SDS011;25499;53.958;10.970;2023-11-21T12:45:18;6.95;;;4.07;;
39822;SDS011;25499;53.958;10.970;2023-11-21T12:47:47;4.22;;;2.85;;
39822;SDS011;25499;53.958;10.970;2023-11-21T12:50:15;5.80;;;3.67;;
39822;SDS011;25499;53.958;10.970;2023-11-21T12:52:49;3.88;;;2.90;;
39822;SDS011;25499;53.958;10.970;2023-11-21T12:55:19;3.22;;;2.10;;
39822;SDS011;25499;53.958;10.970;2023-11-21T12:57:50;3.58;;;1.60;;
39822;SDS011;25499;53.958;10.970;2023-11-21T13:00:28;3.22;;;1.90;;
39822;SDS011;25499;53.958;10.970;2023-11-21T13:03:02;1.88;;;1.30;;
39822;SDS011;25499;53.958;10.970;2023-11-21T13:05:31;2.88;;;1.65;;
39822;SDS011;25499;53.958;10.970;2023-11-21T13:08:02;4.45;;;1.92;;
39822;SDS011;25499;53.958;10.970;2023-11-21T13:10:32;3.47;;;2.20;;
39822;SDS011;25499;53.958;10.970;2023-11-21T13:13:02;5.28;;;2.60;;
39822;SDS011;25499;53.958;10.970;2023-11-21T13:15:34;2.47;;;1.73;;
39822;SDS011;25499;53.958;10.970;2023-11-21T13:18:05;2.55;;;1.73;;
39822;SDS011;25499;53.958;10.970;2023-11-21T13:20:35;2.30;;;1.52;;
39822;SDS011;25499;53.958;10.970;2023-11-21T13:23:06;4.93;;;1.40;;
39822;SDS011;25499;53.958;10.970;2023-11-21T13:25:36;4.30;;;1.65;;
39822;SDS011;25499;53.958;10.970;2023-11-21T13:28:04;2.90;;;1.40;;
39822;SDS011;25499;53.958;10.970;2023-11-21T13:30:31;3.97;;;1.90;;
39822;SDS011;25499;53.958;10.970;2023-11-21T13:33:01;4.75;;;2.65;;
39822;SDS011;25499;53.958;10.970;2023-11-21T13:35:31;2.20;;;2.00;;
39822;SDS011;25499;53.958;10.970;2023-11-21T13:38:04;3.35;;;1.98;;
39822;SDS011;25499;53.958;10.970;2023-11-21T13:40:32;3.33;;;2.60;;
39822;SDS011;25499;53.958;10.970;2023-11-21T13:43:05;2.65;;;1.83;;
39822;SDS011;25499;53.958;10.970;2023-11-21T13:45:35;6.47;;;2.00;;
39822;SDS011;25499;53.958;10.970;2023-11-21T13:48:03;3.15;;;2.00;;
39822;SDS011;25499;53.958;10.970;2023-11-21T13:50:35;2.83;;;1.67;;
39822;SDS011;25499;53.958;10.970;2023-11-21T13:53:02;1.95;;;1.38;;
39822;SDS011;25499;53.958;10.970;2023-11-21T13:55:36;3.63;;;1.80;;
39822;SDS011;25499;53.958;10.970;2023-11-21T13:58:05;5.72;;;2.08;;
39822;SDS011;25499;53.958;10.970;2023-11-21T14:00:35;2.75;;;2.13;;
39822;SDS011;25499;53.958;10.970;2023-11-21T14:03:11;2.80;;;2.13;;
39822;SDS011;25499;53.958;10.970;2023-11-21T14:05:45;2.95;;;1.95;;
39822;SDS011;25499;53.958;10.970;2023-11-21T14:08:16;2.78;;;2.15;;
39822;SDS011;25499;53.958;10.970;2023-11-21T14:10:45;3.95;;;2.50;;
39822;SDS011;25499;53.958;10.970;2023-11-21T14:13:16;6.15;;;1.73;;
39822;SDS011;25499;53.958;10.970;2023-11-21T14:15:43;5.35;;;2.35;;
39822;SDS011;25499;53.958;10.970;2023-11-21T14:18:13;6.88;;;2.88;;
39822;SDS011;25499;53.958;10.970;2023-11-21T14:20:42;3.88;;;2.78;;
39822;SDS011;25499;53.958;10.970;2023-11-21T14:23:10;3.10;;;2.00;;
39822;SDS011;25499;53.958;10.970;2023-11-21T14:25:37;3.47;;;2.03;;
39822;SDS011;25499;53.958;10.970;2023-11-21T14:28:07;5.15;;;1.85;;
39822;SDS011;25499;53.958;10.970;2023-11-21T14:30:37;5.93;;;1.70;;
39822;SDS011;25499;53.958;10.970;2023-11-21T14:33:05;2.13;;;1.50;;
39822;SDS011;25499;53.958;10.970;2023-11-21T14:35:35;5.05;;;1.92;;
39822;SDS011;25499;53.958;10.970;2023-11-21T14:38:02;4.88;;;2.20;;
39822;SDS011;25499;53.958;10.970;2023-11-21T14:40:30;4.13;;;2.58;;
39822;SDS011;25499;53.958;10.970;2023-11-21T14:42:59;3.47;;;2.25;;
39822;SDS011;25499;53.958;10.970;2023-11-21T14:45:26;3.30;;;2.50;;
39822;SDS011;25499;53.958;10.970;2023-11-21T14:47:55;3.15;;;2.38;;
39822;SDS011;25499;53.958;10.970;2023-11-21T14:50:31;3.42;;;2.40;;
39822;SDS011;25499;53.958;10.970;2023-11-21T14:53:17;2.55;;;1.80;;
39822;SDS011;25499;53.958;10.970;2023-11-21T14:56:03;3.28;;;1.88;;
39822;SDS011;25499;53.958;10.970;2023-11-21T14:58:32;6.50;;;1.80;;
39822;SDS011;25499;53.958;10.970;2023-11-21T15:01:00;5.90;;;1.48;;
39822;SDS011;25499;53.958;10.970;2023-11-21T15:03:27;3.15;;;1.40;;
39822;SDS011;25499;53.958;10.970;2023-11-21T15:06:09;1.90;;;1.40;;
39822;SDS011;25499;53.958;10.970;2023-11-21T15:08:49;1.38;;;1.00;;
39822;SDS011;25499;53.958;10.970;2023-11-21T15:11:34;3.30;;;1.15;;
39822;SDS011;25499;53.958;10.970;2023-11-21T15:14:04;3.10;;;1.45;;
39822;SDS011;25499;53.958;10.970;2023-11-21T15:16:33;3.75;;;1.40;;
39822;SDS011;25499;53.958;10.970;2023-11-21T15:21:32;1.75;;;1.50;;
39822;SDS011;25499;53.958;10.970;2023-11-21T15:24:00;2.92;;;1.30;;
39822;SDS011;25499;53.958;10.970;2023-11-21T15:26:27;2.67;;;1.20;;
39822;SDS011;25499;53.958;10.970;2023-11-21T15:28:56;1.48;;;1.27;;
39822;SDS011;25499;53.958;10.970;2023-11-21T15:31:23;1.45;;;1.20;;
39822;SDS011;25499;53.958;10.970;2023-11-21T15:33:50;1.88;;;1.30;;
39822;SDS011;25499;53.958;10.970;2023-11-21T15:36:18;1.58;;;1.30;;
39822;SDS011;25499;53.958;10.970;2023-11-21T15:38:45;3.42;;;1.25;;
39822;SDS011;25499;53.958;10.970;2023-11-21T15:41:13;6.78;;;1.45;;
39822;SDS011;25499;53.958;10.970;2023-11-21T15:43:41;3.08;;;1.60;;
39822;SDS011;25499;53.958;10.970;2023-11-21T15:46:08;2.85;;;1.77;;
39822;SDS011;25499;53.958;10.970;2023-11-21T15:48:35;3.90;;;1.85;;
39822;SDS011;25499;53.958;10.970;2023-11-21T15:51:04;2.42;;;1.60;;
39822;SDS011;25499;53.958;10.970;2023-11-21T15:53:33;6.13;;;2.00;;
39822;SDS011;25499;53.958;10.970;2023-11-21T15:56:00;2.85;;;1.70;;
39822;SDS011;25499;53.958;10.970;2023-11-21T15:58:31;3.95;;;2.40;;
39822;SDS011;25499;53.958;10.970;2023-11-21T16:00:59;9.65;;;3.90;;
39822;SDS011;25499;53.958;10.970;2023-11-21T16:03:26;6.25;;;3.10;;
39822;SDS011;25499;53.958;10.970;2023-11-21T16:05:54;5.00;;;2.65;;
39822;SDS011;25499;53.958;10.970;2023-11-21T16:08:21;5.72;;;2.42;;
39822;SDS011;25499;53.958;10.970;2023-11-21T16:10:49;4.95;;;2.05;;
39822;SDS011;25499;53.958;10.970;2023-11-21T16:13:15;3.78;;;1.98;;
39822;SDS011;25499;53.958;10.970;2023-11-21T16:15:46;3.17;;;2.03;;
39822;SDS011;25499;53.958;10.970;2023-11-21T16:18:14;2.95;;;1.90;;
39822;SDS011;25499;53.958;10.970;2023-11-21T16:20:41;4.00;;;2.05;;
39822;SDS011;25499;53.958;10.970;2023-11-21T16:23:09;4.07;;;2.42;;
39822;SDS011;25499;53.958;10.970;2023-11-21T16:25:36;4.03;;;2.15;;
39822;SDS011;25499;53.958;10.970;2023-11-21T16:28:04;4.47;;;2.50;;
39822;SDS011;25499;53.958;10.970;2023-11-21T16:30:31;7.03;;;3.88;;
39822;SDS011;25499;53.958;10.970;2023-11-21T16:33:00;5.68;;;2.63;;
39822;SDS011;25499;53.958;10.970;2023-11-21T16:35:29;3.72;;;2.20;;
39822;SDS011;25499;53.958;10.970;2023-11-21T16:37:56;3.92;;;3.22;;
39822;SDS011;25499;53.958;10.970;2023-11-21T16:40:23;3.45;;;1.98;;
39822;SDS011;25499;53.958;10.970;2023-11-21T16:42:50;6.50;;;2.22;;
39822;SDS011;25499;53.958;10.970;2023-11-21T16:45:17;3.08;;;2.40;;
39822;SDS011;25499;53.958;10.970;2023-11-21T16:47:44;3.05;;;1.85;;
39822;SDS011;25499;53.958;10.970;2023-11-21T16:50:13;5.07;;;2.35;;
39822;SDS011;25499;53.958;10.970;2023-11-21T16:52:40;2.00;;;1.80;;
39822;SDS011;25499;53.958;10.970;2023-11-21T16:55:08;3.35;;;2.10;;
39822;SDS011;25499;53.958;10.970;2023-11-21T16:57:37;4.03;;;2.33;;
39822;SDS011;25499;53.958;10.970;2023-11-21T17:00:05;3.38;;;2.17;;
39822;SDS011;25499;53.958;10.970;2023-11-21T17:02:37;3.90;;;2.47;;
39822;SDS011;25499;53.958;10.970;2023-11-21T17:05:04;7.05;;;2.58;;
39822;SDS011;25499;53.958;10.970;2023-11-21T17:07:34;3.13;;;2.17;;
39822;SDS011;25499;53.958;10.970;2023-11-21T17:10:01;3.25;;;2.47;;
39822;SDS011;25499;53.958;10.970;2023-11-21T17:12:32;3.75;;;2.83;;
39822;SDS011;25499;53.958;10.970;2023-11-21T17:15:00;6.97;;;2.80;;
39822;SDS011;25499;53.958;10.970;2023-11-21T17:17:27;5.20;;;3.30;;
39822;SDS011;25499;53.958;10.970;2023-11-21T17:19:55;5.80;;;3.25;;
39822;SDS011;25499;53.958;10.970;2023-11-21T17:22:22;4.63;;;2.97;;
39822;SDS011;25499;53.958;10.970;2023-11-21T17:24:51;5.95;;;2.90;;
39822;SDS011;25499;53.958;10.970;2023-11-21T17:27:18;4.75;;;3.40;;
39822;SDS011;25499;53.958;10.970;2023-11-21T17:29:50;6.32;;;3.72;;
39822;SDS011;25499;53.958;10.970;2023-11-21T17:32:19;6.88;;;4.22;;
39822;SDS011;25499;53.958;10.970;2023-11-21T17:34:46;6.63;;;4.32;;
39822;SDS011;25499;53.958;10.970;2023-11-21T17:37:13;11.07;;;6.25;;
39822;SDS011;25499;53.958;10.970;2023-11-21T17:39:41;13.07;;;6.53;;
39822;SDS011;25499;53.958;10.970;2023-11-21T17:42:10;9.23;;;6.20;;
39822;SDS011;25499;53.958;10.970;2023-11-21T17:44:37;8.55;;;5.35;;
39822;SDS011;25499;53.958;10.970;2023-11-21T17:47:05;9.15;;;5.63;;
39822;SDS011;25499;53.958;10.970;2023-11-21T17:49:32;7.00;;;5.40;;
39822;SDS011;25499;53.958;10.970;2023-11-21T17:51:59;8.25;;;5.28;;
39822;SDS011;25499;53.958;10.970;2023-11-21T17:54:26;10.43;;;4.80;;
39822;SDS011;25499;53.958;10.970;2023-11-21T17:56:53;18.02;;;9.77;;
39822;SDS011;25499;53.958;10.970;2023-11-21T17:59:21;13.02;;;7.10;;
39822;SDS011;25499;53.958;10.970;2023-11-21T18:01:48;8.23;;;4.97;;
39822;SDS011;25499;53.958;10.970;2023-11-21T18:04:16;4.45;;;2.72;;
39822;SDS011;25499;53.958;10.970;2023-11-21T18:06:43;8.60;;;3.83;;
39822;SDS011;25499;53.958;10.970;2023-11-21T18:09:10;6.40;;;1.60;;
39822;SDS011;25499;53.958;10.970;2023-11-21T18:11:37;5.72;;;1.00;;
39822;SDS011;25499;53.958;10.970;2023-11-21T18:14:04;2.47;;;0.80;;
39822;SDS011;25499;53.958;10.970;2023-11-21T18:16:35;1.80;;;1.13;;
39822;SDS011;25499;53.958;10.970;2023-11-21T18:19:04;3.33;;;1.23;;
39822;SDS011;25499;53.958;10.970;2023-11-21T18:21:31;4.63;;;1.13;;
39822;SDS011;25499;53.958;10.970;2023-11-21T18:23:58;1.73;;;1.00;;
39822;SDS011;25499;53.958;10.970;2023-11-21T18:26:24;1.83;;;1.17;;
39822;SDS011;25499;53.958;10.970;2023-11-21T18:28:51;2.75;;;1.05;;
39822;SDS011;25499;53.958;10.970;2023-11-21T18:31:18;2.58;;;1.00;;
39822;SDS011;25499;53.958;10.970;2023-11-21T18:33:47;5.97;;;1.52;;
39822;SDS011;25499;53.958;10.970;2023-11-21T18:36:14;3.53;;;1.98;;
39822;SDS011;25499;53.958;10.970;2023-11-21T18:38:41;1.83;;;1.20;;
39822;SDS011;25499;53.958;10.970;2023-11-21T18:41:08;2.05;;;1.23;;
39822;SDS011;25499;53.958;10.970;2023-11-21T18:43:35;1.38;;;1.08;;
39822;SDS011;25499;53.958;10.970;2023-11-21T18:46:02;1.63;;;0.93;;
39822;SDS011;25499;53.958;10.970;2023-11-21T18:48:31;2.03;;;1.30;;
39822;SDS011;25499;53.958;10.970;2023-11-21T18:50:59;2.40;;;0.88;;
39822;SDS011;25499;53.958;10.970;2023-11-21T18:53:26;1.95;;;1.00;;
39822;SDS011;25499;53.958;10.970;2023-11-21T18:55:55;2.58;;;1.02;;
39822;SDS011;25499;53.958;10.970;2023-11-21T18:58:22;2.35;;;1.27;;
39822;SDS011;25499;53.958;10.970;2023-11-21T19:00:49;1.98;;;1.30;;
39822;SDS011;25499;53.958;10.970;2023-11-21T19:03:16;1.90;;;1.38;;
39822;SDS011;25499;53.958;10.970;2023-11-21T19:05:43;4.68;;;1.98;;
39822;SDS011;25499;53.958;10.970;2023-11-21T19:08:11;1.67;;;1.58;;
39822;SDS011;25499;53.958;10.970;2023-11-21T19:10:38;2.95;;;1.30;;
39822;SDS011;25499;53.958;10.970;2023-11-21T19:13:05;2.10;;;1.58;;
39822;SDS011;25499;53.958;10.970;2023-11-21T19:15:32;3.33;;;1.40;;
39822;SDS011;25499;53.958;10.970;2023-11-21T19:18:00;2.90;;;1.77;;
39822;SDS011;25499;53.958;10.970;2023-11-21T19:20:28;5.03;;;1.80;;
39822;SDS011;25499;53.958;10.970;2023-11-21T19:22:57;2.78;;;1.75;;
39822;SDS011;25499;53.958;10.970;2023-11-21T19:25:26;2.25;;;1.35;;
39822;SDS011;25499;53.958;10.970;2023-11-21T19:27:53;2.30;;;1.80;;
39822;SDS011;25499;53.958;10.970;2023-11-21T19:30:20;2.30;;;1.73;;
39822;SDS011;25499;53.958;10.970;2023-11-21T19:32:47;2.08;;;1.58;;
39822;SDS011;25499;53.958;10.970;2023-11-21T19:35:14;2.85;;;2.28;;
39822;SDS011;25499;53.958;10.970;2023-11-21T19:37:41;6.20;;;4.20;;
39822;SDS011;25499;53.958;10.970;2023-11-21T19:40:08;7.40;;;4.72;;
39822;SDS011;25499;53.958;10.970;2023-11-21T19:42:37;10.82;;;5.15;;
39822;SDS011;25499;53.958;10.970;2023-11-21T19:45:06;6.57;;;3.40;;
39822;SDS011;25499;53.958;10.970;2023-11-21T19:47:33;5.03;;;3.30;;
39822;SDS011;25499;53.958;10.970;2023-11-21T19:50:03;10.27;;;5.80;;
39822;SDS011;25499;53.958;10.970;2023-11-21T19:52:32;7.20;;;4.80;;
39822;SDS011;25499;53.958;10.970;2023-11-21T19:55:00;4.88;;;4.28;;
39822;SDS011;25499;53.958;10.970;2023-11-21T19:57:28;5.55;;;3.38;;
39822;SDS011;25499;53.958;10.970;2023-11-21T19:59:57;6.97;;;4.03;;
39822;SDS011;25499;53.958;10.970;2023-11-21T20:02:23;4.53;;;3.50;;
39822;SDS011;25499;53.958;10.970;2023-11-21T20:04:51;6.90;;;4.03;;
39822;SDS011;25499;53.958;10.970;2023-11-21T20:07:19;6.68;;;4.78;;
39822;SDS011;25499;53.958;10.970;2023-11-21T20:09:48;4.50;;;4.05;;
39822;SDS011;25499;53.958;10.970;2023-11-21T20:12:15;3.97;;;2.97;;
39822;SDS011;25499;53.958;10.970;2023-11-21T20:14:42;2.80;;;2.03;;
39822;SDS011;25499;53.958;10.970;2023-11-21T20:17:10;3.42;;;1.80;;
39822;SDS011;25499;53.958;10.970;2023-11-21T20:19:37;3.60;;;1.80;;
39822;SDS011;25499;53.958;10.970;2023-11-21T20:22:06;4.60;;;2.53;;
39822;SDS011;25499;53.958;10.970;2023-11-21T20:24:32;2.50;;;1.48;;
39822;SDS011;25499;53.958;10.970;2023-11-21T20:27:01;1.80;;;0.68;;
39822;SDS011;25499;53.958;10.970;2023-11-21T20:29:27;1.70;;;1.00;;
39822;SDS011;25499;53.958;10.970;2023-11-21T20:31:54;1.90;;;1.00;;
39822;SDS011;25499;53.958;10.970;2023-11-21T20:34:22;3.47;;;1.00;;
39822;SDS011;25499;53.958;10.970;2023-11-21T20:36:50;2.17;;;1.10;;
39822;SDS011;25499;53.958;10.970;2023-11-21T20:39:18;1.88;;;0.90;;
39822;SDS011;25499;53.958;10.970;2023-11-21T20:41:45;4.60;;;0.90;;
39822;SDS011;25499;53.958;10.970;2023-11-21T20:44:13;4.13;;;1.00;;
39822;SDS011;25499;53.958;10.970;2023-11-21T20:46:39;1.88;;;0.90;;
39822;SDS011;25499;53.958;10.970;2023-11-21T20:49:08;1.27;;;0.80;;
39822;SDS011;25499;53.958;10.970;2023-11-21T20:51:37;2.83;;;1.20;;
39822;SDS011;25499;53.958;10.970;2023-11-21T20:54:04;1.77;;;1.10;;
39822;SDS011;25499;53.958;10.970;2023-11-21T20:56:31;1.60;;;1.08;;
